Ana Sayfa
METAR-TAF:

METAR-TAF

Havaalanları :

Cebelitarık Havalimanı

Cebelitarık, Cebelitarık

Enlem: 36-09N, Boylam: 005-21W, yükseklik: 5 m

Güncel hava durumu gözlemi

Rapor saat 19:50 UTC de 18 dakika önce yapıldı.
Rüzgar güney/güneybatıdan 8 kt
Sıcaklık 24°C
Nem 61%
Basınç 1015 hPa
Görüş mesafesi 10 km veya daha fazla
1500 m altında bulut yok ve kümülonimbus yok

METAR: LXGB 151950Z 20008KT CAVOK 24/16 Q1015 NOSIG

Saat: 22:08 (20:08 UTC)

Tahmin

Rapor saat 16:19 UTC de 3 saat ve 49 dakika önce yapıldı.
Ayın 15'si saat 18 UTC'den ayın 15'si saat 22 UTC'ye kadar geçerli Tahmin
Rüzgar doğudan 6 kt
Görüş mesafesi 10 km veya daha fazla
2000 ft yükseklikte az bulutlu
Olasılık 40% :
Geçici
ayın 15'si saat 19 UTC'den ayın 15'si saat 22 UTC'ye kadar
1000 ft yükseklikte az bulutlu
1800 ft yükseklikte parçalı bulutlu

TAF: LXGB 151619Z 1518/1522 09006KT 9999 FEW020 PROB40 TEMPO 1519/1522 FEW010 SCT018

4.000'den fazla havaalanı için hava durumu gözlemleri ve tahminleri (METAR ve TAF raporları).

Kullanılabilir istasyonlar harita üzerinde sarı ve kırmızı noktalarla gösterilir.

İstasyonun adını görmek için fareyi noktanın üzerinde gezdirin.

Sonrasında hava gözlem ve tahminlerini görmek için tıklayın.

Haritayı değiştirmek için: yaklaştırmak için siyah artı işaretli yeşil düğmeye ve uzaklaştırmak için de eksi işaretli düğmeye hızla tıklayın; bitişik haritalar için yeşil okları kullanın.


METAR-TAF: